Terminal Aerodrome Forecast
Issued by NWS

Home | Current Version | Previous Version | Text Only | Print | Product List | Glossary On
Versions: 1 2 3 4 5 6 7 8 9 10 11 12 13 14
045
FTUS43 KAPX 241720
TAFAPN
TAF
KAPN 241720Z 2418/2518 VRB03KT 5SM BR OVC022
     FM242100 02004KT 3SM -RA BR OVC010
     FM250800 03008KT 4SM -SN OVC008
     FM251400 06011G20KT P6SM VCSH OVC030=

USA.gov is the U.S. government's official web portal to all federal, state and local government web resources and services.